Time;durP1;ratioP1;P1;durP2;ratioP2;P2;SDS_P1;SDS_P2;PMS_P1;PMS_P2;Temp;Humidity;BMP_temperature;BMP_pressure;BME280_temperature;BME280_humidity;BME280_pressure;Samples;Min_cycle;Max_cycle;Signal;HPM_P1;HPM_P2
2023/06/08 00:00:08;;;;;;;6.10;5.50;;;20.00;50.90;;;;;;6272667;28;20238;-80
2023/06/08 00:03:12;;;;;;;5.83;5.33;;;20.00;50.70;;;;;;6269708;28;20320;-79
2023/06/08 00:06:15;;;;;;;5.73;5.17;;;19.90;50.70;;;;;;6284034;28;20225;-80
2023/06/08 00:09:20;;;;;;;5.23;4.93;;;19.90;50.20;;;;;;6275638;28;20295;-81
2023/06/08 00:12:24;;;;;;;5.23;5.03;;;19.70;50.20;;;;;;6262634;28;20256;-82
2023/06/08 00:15:30;;;;;;;5.70;5.13;;;19.70;50.30;;;;;;6269960;28;20230;-79
2023/06/08 00:18:36;;;;;;;4.70;4.50;;;19.70;49.90;;;;;;6287014;28;20237;-80
2023/06/08 00:21:42;;;;;;;5.20;4.87;;;19.60;50.00;;;;;;6280315;28;20276;-80
2023/06/08 00:24:45;;;;;;;5.50;5.20;;;19.60;50.40;;;;;;6272734;28;20880;-81
2023/06/08 00:27:49;;;;;;;5.80;5.40;;;19.50;50.10;;;;;;6280507;28;20234;-80
2023/06/08 00:30:53;;;;;;;5.03;4.63;;;19.50;49.70;;;;;;6260145;28;20755;-79
2023/06/08 00:33:56;;;;;;;5.40;5.10;;;19.40;49.60;;;;;;6281910;28;20237;-82
2023/06/08 00:36:59;;;;;;;5.80;5.50;;;19.40;49.50;;;;;;6271900;28;20233;-81
2023/06/08 00:40:04;;;;;;;5.63;5.23;;;19.40;49.20;;;;;;6267609;28;20260;-80
2023/06/08 00:43:07;;;;;;;5.10;4.90;;;19.40;49.10;;;;;;6262797;28;20883;-80
2023/06/08 00:46:13;;;;;;;5.43;5.10;;;19.30;49.10;;;;;;6273598;28;20267;-81
2023/06/08 00:49:19;;;;;;;5.20;4.90;;;19.20;49.30;;;;;;6269830;28;20225;-80
2023/06/08 00:52:25;;;;;;;6.03;5.53;;;19.20;49.70;;;;;;6287885;28;20268;-79
2023/06/08 00:55:33;;;;;;;5.73;5.33;;;19.10;50.10;;;;;;6270177;28;20317;-81
2023/06/08 00:58:37;;;;;;;5.67;5.37;;;19.00;50.30;;;;;;6318024;28;20248;-82
2023/06/08 01:01:45;;;;;;;5.53;5.23;;;18.90;50.40;;;;;;6288959;28;20229;-81
2023/06/08 01:04:50;;;;;;;6.60;6.10;;;18.90;50.80;;;;;;6258370;28;20226;-81
2023/06/08 01:08:05;;;;;;;6.00;5.70;;;18.80;51.20;;;;;;6258253;28;20848;-79
2023/06/08 01:11:14;;;;;;;6.00;5.70;;;18.70;51.40;;;;;;6277638;28;20238;-81
2023/06/08 01:14:27;;;;;;;6.53;6.13;;;18.60;51.50;;;;;;6272933;28;20260;-82
2023/06/08 01:17:40;;;;;;;5.13;4.97;;;18.60;51.50;;;;;;6279843;28;20316;-81
2023/06/08 01:21:02;;;;;;;6.10;5.70;;;18.60;51.60;;;;;;6263454;28;20246;-77
2023/06/08 01:24:12;;;;;;;5.97;5.60;;;18.50;51.60;;;;;;6264438;28;20225;-81
2023/06/08 01:27:16;;;;;;;6.30;5.80;;;18.50;52.20;;;;;;6262654;28;20237;-80
2023/06/08 01:30:19;;;;;;;5.60;5.10;;;18.60;52.50;;;;;;6285537;28;20225;-81
2023/06/08 01:33:24;;;;;;;6.60;6.00;;;18.60;52.60;;;;;;6266490;28;20242;-78
2023/06/08 01:36:33;;;;;;;6.27;5.67;;;18.60;52.80;;;;;;6278776;28;20288;-80
2023/06/08 01:39:48;;;;;;;8.50;6.07;;;18.50;53.00;;;;;;6283630;28;20316;-79
2023/06/08 01:42:52;;;;;;;8.70;6.00;;;18.50;52.90;;;;;;6256865;28;20246;-82
2023/06/08 01:46:01;;;;;;;5.70;5.40;;;18.50;53.00;;;;;;6271163;28;20735;-78
2023/06/08 01:49:05;;;;;;;6.87;5.93;;;18.50;53.10;;;;;;6280372;28;20293;-81
2023/06/08 01:52:09;;;;;;;6.03;5.43;;;18.40;53.00;;;;;;6269123;28;20241;-81
2023/06/08 01:55:17;;;;;;;5.60;5.40;;;18.40;53.00;;;;;;6277915;28;20721;-81
2023/06/08 01:58:20;;;;;;;5.97;5.47;;;18.30;53.00;;;;;;6272090;28;20237;-77
2023/06/08 02:01:24;;;;;;;5.87;5.47;;;18.30;53.30;;;;;;6272497;28;20237;-80
2023/06/08 02:04:27;;;;;;;5.53;5.23;;;18.20;53.40;;;;;;6274676;28;20685;-79
2023/06/08 02:07:30;;;;;;;6.33;5.90;;;18.10;53.40;;;;;;6283791;28;20346;-82
2023/06/08 02:10:34;;;;;;;6.93;6.43;;;18.00;53.40;;;;;;6277083;28;20261;-82
2023/06/08 02:13:40;;;;;;;6.07;5.43;;;18.00;53.80;;;;;;6275380;28;20864;-81
2023/06/08 02:16:45;;;;;;;5.53;5.17;;;18.00;53.50;;;;;;6270866;28;20245;-81
2023/06/08 02:19:49;;;;;;;6.10;5.63;;;17.90;53.40;;;;;;6266107;28;20257;-79
2023/06/08 02:22:52;;;;;;;5.63;5.33;;;17.80;53.50;;;;;;6281601;28;20241;-82
2023/06/08 02:25:57;;;;;;;5.97;5.63;;;17.80;53.50;;;;;;6273598;28;20232;-79
2023/06/08 02:29:00;;;;;;;5.97;5.53;;;17.70;53.50;;;;;;6288142;28;20308;-83
2023/06/08 02:32:03;;;;;;;6.20;5.70;;;17.60;53.60;;;;;;6269275;28;20250;-81
2023/06/08 02:35:09;;;;;;;6.67;6.20;;;17.60;53.80;;;;;;6277743;28;20702;-81
2023/06/08 02:38:12;;;;;;;6.20;5.80;;;17.50;53.90;;;;;;6285968;28;20233;-80
2023/06/08 02:41:17;;;;;;;5.77;5.40;;;17.50;53.80;;;;;;6269755;28;20250;-82
2023/06/08 02:44:20;;;;;;;6.80;6.30;;;17.60;53.60;;;;;;6273712;28;20243;-81
2023/06/08 02:47:23;;;;;;;6.40;6.10;;;17.50;53.90;;;;;;6265967;28;20245;-81
2023/06/08 02:50:26;;;;;;;6.57;6.13;;;17.50;53.70;;;;;;6279986;28;20955;-82
2023/06/08 02:53:29;;;;;;;6.70;6.20;;;17.50;53.50;;;;;;6263420;28;20845;-82
2023/06/08 02:56:33;;;;;;;6.00;5.70;;;17.50;53.40;;;;;;6272631;28;20237;-81
2023/06/08 02:59:37;;;;;;;6.47;6.03;;;17.50;53.40;;;;;;6275816;28;20290;-79
2023/06/08 03:02:40;;;;;;;7.20;6.60;;;17.50;53.50;;;;;;6278992;28;20796;-81
2023/06/08 03:05:43;;;;;;;7.20;6.77;;;17.50;53.20;;;;;;6274183;28;20236;-81
2023/06/08 03:08:47;;;;;;;5.90;5.50;;;17.40;53.10;;;;;;6277048;28;20229;-82
2023/06/08 03:11:52;;;;;;;6.30;5.80;;;17.40;53.30;;;;;;6281713;28;20233;-80
2023/06/08 03:14:55;;;;;;;7.10;6.43;;;17.40;53.50;;;;;;6272597;28;20771;-80
2023/06/08 03:17:59;;;;;;;7.27;6.70;;;17.40;53.30;;;;;;6266654;28;20241;-78
2023/06/08 03:21:03;;;;;;;5.97;5.57;;;17.40;53.20;;;;;;6268102;28;20410;-83
2023/06/08 03:24:07;;;;;;;6.63;6.13;;;17.40;53.40;;;;;;6273529;28;20242;-79
2023/06/08 03:27:11;;;;;;;6.70;6.20;;;17.40;52.70;;;;;;6277138;28;20319;-80
2023/06/08 03:30:14;;;;;;;6.23;5.80;;;17.40;52.90;;;;;;6266340;28;20249;-79
2023/06/08 03:33:19;;;;;;;8.83;6.90;;;17.50;52.80;;;;;;6260978;28;20249;-80
2023/06/08 03:36:28;;;;;;;7.83;5.87;;;17.40;52.80;;;;;;6275753;28;20317;-79
2023/06/08 03:39:31;;;;;;;6.53;5.93;;;17.50;52.70;;;;;;6265240;28;20617;-81
2023/06/08 03:42:36;;;;;;;5.87;5.63;;;17.50;52.60;;;;;;6276260;28;20238;-80
2023/06/08 03:45:39;;;;;;;6.63;6.23;;;17.50;52.40;;;;;;6276823;28;20324;-82
2023/06/08 03:48:42;;;;;;;6.63;6.10;;;17.50;52.10;;;;;;6272756;28;20285;-78
2023/06/08 03:51:45;;;;;;;6.47;6.07;;;17.50;52.10;;;;;;6274081;28;20237;-79
2023/06/08 03:54:48;;;;;;;6.50;6.00;;;17.50;52.10;;;;;;6290344;28;20236;-78
2023/06/08 03:57:53;;;;;;;5.87;5.57;;;17.50;51.80;;;;;;6287385;28;20317;-80
2023/06/08 04:00:56;;;;;;;6.80;6.40;;;17.60;51.60;;;;;;6287585;28;20238;-79
2023/06/08 04:03:59;;;;;;;6.50;6.10;;;17.60;51.60;;;;;;6308047;28;20244;-82
2023/06/08 04:07:03;;;;;;;5.60;5.20;;;17.70;51.20;;;;;;6305195;28;20244;-81
2023/06/08 04:10:07;;;;;;;6.20;5.70;;;17.80;51.00;;;;;;6322463;28;20229;-81
2023/06/08 04:13:11;;;;;;;5.77;5.47;;;17.80;50.70;;;;;;6295445;28;20222;-79
2023/06/08 04:16:15;;;;;;;6.23;5.77;;;18.00;50.70;;;;;;6307685;28;20238;-82
2023/06/08 04:19:18;;;;;;;6.13;5.53;;;18.00;50.80;;;;;;6311340;28;20222;-81
2023/06/08 04:22:22;;;;;;;6.70;6.20;;;18.00;50.50;;;;;;6303516;28;20261;-81
2023/06/08 04:25:25;;;;;;;7.17;5.43;;;18.10;50.10;;;;;;6311609;28;20221;-81
2023/06/08 04:28:30;;;;;;;6.10;5.80;;;18.20;50.00;;;;;;6312768;28;20218;-81
2023/06/08 04:31:35;;;;;;;6.33;5.73;;;18.30;50.20;;;;;;6299988;28;20233;-81
2023/06/08 04:34:38;;;;;;;6.43;5.93;;;18.30;50.40;;;;;;6308323;28;20214;-81
2023/06/08 04:37:42;;;;;;;6.83;6.13;;;18.40;50.30;;;;;;6305036;28;20246;-81
2023/06/08 04:40:49;;;;;;;6.47;6.00;;;18.40;50.00;;;;;;6295079;28;20230;-80
2023/06/08 04:43:54;;;;;;;5.70;5.40;;;18.40;49.90;;;;;;6288850;28;20219;-80
2023/06/08 04:46:57;;;;;;;5.30;5.10;;;18.50;50.30;;;;;;6297235;28;20230;-79
2023/06/08 04:50:01;;;;;;;5.40;5.10;;;18.50;50.40;;;;;;6272209;28;20813;-79
2023/06/08 04:53:04;;;;;;;5.87;5.57;;;18.60;50.60;;;;;;6279191;28;20729;-80
2023/06/08 04:56:08;;;;;;;7.20;6.47;;;18.70;50.40;;;;;;6280342;28;20314;-81
2023/06/08 04:59:12;;;;;;;6.20;5.67;;;19.00;49.70;;;;;;6278349;28;20226;-81
2023/06/08 05:02:15;;;;;;;6.37;5.97;;;19.30;48.00;;;;;;6279353;28;20238;-79
2023/06/08 05:05:19;;;;;;;6.50;6.10;;;19.50;47.40;;;;;;6283488;28;20248;-80
2023/06/08 05:08:22;;;;;;;6.47;5.97;;;19.70;47.50;;;;;;6265950;28;20254;-76
2023/06/08 05:11:26;;;;;;;6.73;6.27;;;19.70;47.60;;;;;;6262667;28;20275;-75
2023/06/08 05:14:30;;;;;;;6.50;6.10;;;19.70;47.70;;;;;;6277467;28;20291;-77
2023/06/08 05:17:33;;;;;;;7.17;6.47;;;19.70;48.20;;;;;;6269144;28;20245;-78
2023/06/08 05:20:36;;;;;;;9.07;6.63;;;19.70;47.50;;;;;;6271506;28;20783;-76
2023/06/08 05:23:40;;;;;;;5.40;5.10;;;19.70;47.50;;;;;;6277542;28;20249;-76
2023/06/08 05:26:43;;;;;;;6.87;6.27;;;19.70;47.20;;;;;;6272086;28;20240;-78
2023/06/08 05:29:47;;;;;;;6.57;6.03;;;19.70;48.00;;;;;;6268682;28;20261;-76
2023/06/08 05:32:50;;;;;;;6.57;6.10;;;19.90;46.20;;;;;;6270624;28;20320;-77
2023/06/08 05:35:53;;;;;;;8.23;7.00;;;20.10;47.10;;;;;;6259111;28;20229;-76
2023/06/08 05:39:07;;;;;;;6.50;5.93;;;20.60;46.40;;;;;;6261890;28;20317;-76
2023/06/08 05:42:11;;;;;;;5.90;5.50;;;21.30;45.50;;;;;;6261848;28;20315;-77
2023/06/08 05:45:16;;;;;;;8.10;6.03;;;21.70;44.60;;;;;;6258345;28;20257;-77
2023/06/08 05:48:19;;;;;;;6.93;5.97;;;22.10;43.50;;;;;;6275208;28;20265;-75
2023/06/08 05:51:22;;;;;;;6.33;5.70;;;22.20;43.40;;;;;;6271153;28;20331;-77
2023/06/08 05:54:25;;;;;;;10.57;6.00;;;22.30;43.50;;;;;;6267845;28;20234;-76
2023/06/08 05:57:28;;;;;;;11.50;6.37;;;22.70;43.00;;;;;;6285085;28;20238;-74
2023/06/08 06:00:33;;;;;;;11.10;6.03;;;23.10;43.30;;;;;;6301237;28;20237;-74
2023/06/08 06:03:36;;;;;;;8.90;5.60;;;23.50;42.80;;;;;;6301181;28;20233;-75
2023/06/08 06:06:39;;;;;;;8.70;6.23;;;23.80;42.50;;;;;;6297779;28;20214;-77
2023/06/08 06:09:44;;;;;;;5.83;5.33;;;24.00;42.00;;;;;;6308347;28;20245;-78
2023/06/08 06:12:47;;;;;;;7.90;5.90;;;24.30;42.20;;;;;;6295853;28;20407;-78
2023/06/08 06:15:53;;;;;;;7.97;5.40;;;24.50;42.00;;;;;;6284516;28;20229;-78
2023/06/08 06:18:57;;;;;;;8.10;5.57;;;24.50;41.20;;;;;;6293668;28;20309;-78
2023/06/08 06:22:00;;;;;;;8.00;5.83;;;24.50;41.30;;;;;;6289870;28;20225;-77
2023/06/08 06:25:05;;;;;;;11.53;6.23;;;24.50;41.60;;;;;;6293114;28;20234;-78
2023/06/08 06:28:08;;;;;;;5.90;5.40;;;24.60;41.80;;;;;;6287280;28;20218;-76
2023/06/08 06:31:13;;;;;;;9.77;5.93;;;24.80;41.90;;;;;;6303525;28;20228;-76
2023/06/08 06:34:17;;;;;;;8.33;5.40;;;25.00;40.90;;;;;;6272642;28;20237;-78
2023/06/08 06:37:20;;;;;;;8.17;6.03;;;25.40;40.00;;;;;;6280839;28;20269;-82
2023/06/08 06:40:23;;;;;;;5.87;4.90;;;25.80;40.00;;;;;;6270001;28;20229;-80
2023/06/08 06:43:26;;;;;;;11.40;6.30;;;26.10;39.50;;;;;;6279166;28;20245;-79
2023/06/08 06:46:31;;;;;;;6.47;5.30;;;26.00;39.60;;;;;;6274005;28;20278;-78
2023/06/08 06:49:34;;;;;;;6.33;5.10;;;25.60;39.80;;;;;;6272370;28;20352;-81
2023/06/08 06:52:37;;;;;;;9.07;5.80;;;25.40;40.20;;;;;;6273563;28;20361;-80
2023/06/08 06:55:41;;;;;;;5.77;5.23;;;25.30;41.00;;;;;;6279351;28;20245;-79
2023/06/08 06:58:44;;;;;;;6.30;5.83;;;25.20;40.90;;;;;;6273954;28;20996;-81
2023/06/08 07:01:50;;;;;;;6.10;5.60;;;25.60;40.70;;;;;;6281968;28;20322;-78
2023/06/08 07:04:54;;;;;;;11.07;6.53;;;25.90;40.50;;;;;;6277753;28;20245;-80
2023/06/08 07:07:58;;;;;;;6.10;5.70;;;26.10;39.90;;;;;;6285138;28;20229;-80
2023/06/08 07:11:01;;;;;;;8.07;6.17;;;26.40;40.20;;;;;;6285548;28;20659;-81
2023/06/08 07:14:05;;;;;;;7.77;7.07;;;26.40;40.50;;;;;;6269578;28;20236;-81
2023/06/08 07:17:11;;;;;;;11.20;5.87;;;26.50;40.00;;;;;;6266894;28;20241;-83
2023/06/08 07:20:15;;;;;;;6.37;5.80;;;26.60;40.30;;;;;;6283875;28;20256;-82
2023/06/08 07:23:18;;;;;;;6.57;5.83;;;26.80;40.00;;;;;;6274665;28;20241;-81
2023/06/08 07:26:43;;;;;;;6.87;6.00;;;26.70;39.70;;;;;;6278698;28;20242;-82
2023/06/08 07:29:47;;;;;;;6.63;5.30;;;26.90;39.70;;;;;;6279131;28;20320;-81
2023/06/08 07:32:52;;;;;;;6.03;5.73;;;27.00;39.90;;;;;;6270771;28;20261;-81
2023/06/08 07:35:55;;;;;;;6.70;6.00;;;27.10;40.00;;;;;;6272831;28;20307;-80
2023/06/08 07:38:58;;;;;;;6.17;5.77;;;27.20;40.00;;;;;;6268943;28;20800;-79
2023/06/08 07:42:03;;;;;;;5.57;5.10;;;27.30;40.30;;;;;;6271152;28;20234;-79
2023/06/08 07:45:08;;;;;;;5.30;4.90;;;27.30;40.50;;;;;;6258545;28;20249;-82
2023/06/08 07:48:13;;;;;;;7.77;5.73;;;27.30;40.60;;;;;;6271636;28;20253;-81
2023/06/08 07:51:16;;;;;;;9.00;5.40;;;27.30;40.60;;;;;;6283570;28;20360;-78
2023/06/08 07:54:19;;;;;;;6.27;5.80;;;27.40;41.00;;;;;;6277711;28;20282;-80
2023/06/08 07:57:22;;;;;;;9.60;6.10;;;27.10;40.00;;;;;;6269463;28;20690;-79
2023/06/08 08:00:26;;;;;;;5.77;5.43;;;26.90;40.20;;;;;;6268999;28;20233;-80
2023/06/08 08:03:36;;;;;;;6.87;6.27;;;26.80;40.00;;;;;;6275807;28;20858;-80
2023/06/08 08:06:39;;;;;;;6.47;5.43;;;26.70;40.50;;;;;;6280501;28;20316;-81
2023/06/08 08:09:42;;;;;;;6.80;5.73;;;26.70;40.20;;;;;;6258851;28;20866;-79
2023/06/08 08:12:45;;;;;;;6.47;6.07;;;26.70;40.60;;;;;;6281280;28;20242;-79
2023/06/08 08:15:51;;;;;;;9.57;5.50;;;26.60;40.60;;;;;;6267562;28;20257;-79
2023/06/08 08:18:55;;;;;;;7.53;5.60;;;26.60;40.50;;;;;;6275002;28;20317;-81
2023/06/08 08:21:58;;;;;;;5.87;5.37;;;26.60;41.00;;;;;;6261254;28;20240;-78
2023/06/08 08:25:01;;;;;;;8.00;6.23;;;26.60;41.00;;;;;;6273879;28;20326;-80
2023/06/08 08:28:05;;;;;;;8.97;5.67;;;26.70;40.80;;;;;;6270456;28;20237;-78
2023/06/08 08:31:11;;;;;;;8.27;5.80;;;26.70;40.60;;;;;;6276737;28;20261;-77
2023/06/08 08:34:16;;;;;;;6.43;5.83;;;26.80;40.60;;;;;;6268129;28;20238;-80
2023/06/08 08:37:19;;;;;;;6.10;5.50;;;26.80;41.00;;;;;;6273872;28;20245;-81
2023/06/08 08:40:22;;;;;;;6.27;5.70;;;26.90;41.10;;;;;;6275686;28;20242;-81
2023/06/08 08:43:33;;;;;;;7.43;5.33;;;27.10;40.90;;;;;;6265014;28;20280;-80
2023/06/08 08:46:38;;;;;;;10.00;6.37;;;27.40;40.30;;;;;;6288759;28;20731;-80
2023/06/08 08:49:43;;;;;;;7.20;6.80;;;27.50;40.50;;;;;;6272702;28;20247;-81
2023/06/08 08:52:53;;;;;;;6.90;5.93;;;27.70;41.20;;;;;;6287245;28;20229;-82
2023/06/08 08:55:57;;;;;;;9.57;6.30;;;27.90;40.40;;;;;;6277183;28;20673;-78
2023/06/08 08:59:00;;;;;;;8.90;5.47;;;27.90;40.20;;;;;;6278196;28;20240;-78
2023/06/08 09:02:05;;;;;;;7.27;5.83;;;27.70;40.50;;;;;;6268970;28;20241;-81
2023/06/08 09:05:10;;;;;;;5.70;4.97;;;27.80;40.00;;;;;;6264316;28;20238;-82
2023/06/08 09:08:13;;;;;;;6.37;5.90;;;28.00;40.30;;;;;;6269164;28;20238;-79
2023/06/08 09:11:16;;;;;;;7.50;6.17;;;28.20;40.10;;;;;;6268430;28;20251;-78
2023/06/08 09:14:20;;;;;;;7.23;6.00;;;28.30;40.00;;;;;;6284844;28;20788;-79
2023/06/08 09:17:37;;;;;;;6.27;5.73;;;28.30;39.50;;;;;;6270483;28;20319;-80
2023/06/08 09:20:43;;;;;;;6.57;5.53;;;28.30;39.10;;;;;;6271491;28;20225;-80
2023/06/08 09:24:27;;;;;;;6.30;5.57;;;28.40;38.70;;;;;;6279042;28;20229;-79
2023/06/08 09:27:47;;;;;;;5.67;5.27;;;28.60;38.80;;;;;;6268789;28;20226;-79
2023/06/08 09:30:50;;;;;;;5.73;5.13;;;28.70;38.60;;;;;;6267691;28;20233;-78
2023/06/08 09:34:06;;;;;;;5.87;5.30;;;28.70;38.40;;;;;;6271033;28;20272;-80
2023/06/08 09:37:11;;;;;;;5.53;5.03;;;28.80;38.40;;;;;;6266685;28;20235;-79
2023/06/08 09:40:20;;;;;;;5.60;5.13;;;28.90;38.60;;;;;;6268286;28;20379;-80
2023/06/08 09:43:32;;;;;;;7.72;5.40;;;29.00;38.60;;;;;;6261319;28;20245;-79
2023/06/08 09:46:38;;;;;;;7.03;5.20;;;29.10;38.20;;;;;;6267327;28;20324;-78
2023/06/08 09:49:42;;;;;;;5.90;5.38;;;29.20;38.20;;;;;;6274110;28;20285;-81
2023/06/08 09:52:50;;;;;;;6.27;5.27;;;29.10;38.50;;;;;;6282171;28;20244;-79
2023/06/08 09:55:55;;;;;;;5.13;4.72;;;29.00;38.40;;;;;;6261044;28;20260;-79
2023/06/08 09:59:08;;;;;;;5.60;4.90;;;28.90;38.80;;;;;;6272586;28;20261;-78
2023/06/08 10:02:19;;;;;;;5.43;5.07;;;28.90;38.80;;;;;;6268021;28;20239;-78
2023/06/08 10:05:23;;;;;;;5.55;4.97;;;28.70;39.20;;;;;;6265611;28;21014;-78
2023/06/08 10:08:29;;;;;;;6.85;5.85;;;28.70;39.60;;;;;;6265727;28;20276;-78
2023/06/08 10:11:33;;;;;;;6.68;5.43;;;28.70;40.30;;;;;;6267575;28;20257;-80
2023/06/08 10:14:38;;;;;;;4.95;4.65;;;29.00;39.30;;;;;;6266508;28;20817;-79
2023/06/08 10:17:42;;;;;;;9.10;5.68;;;28.90;39.20;;;;;;6280111;28;20237;-78
2023/06/08 10:20:45;;;;;;;5.60;5.17;;;28.80;39.60;;;;;;6271872;28;20245;-80
2023/06/08 10:23:51;;;;;;;6.07;5.68;;;28.70;39.10;;;;;;6262390;28;20237;-78
2023/06/08 10:27:09;;;;;;;5.97;5.43;;;28.90;39.40;;;;;;6269779;28;20234;-81
2023/06/08 10:30:27;;;;;;;7.63;5.70;;;29.00;39.40;;;;;;6274119;28;20241;-78
2023/06/08 10:33:32;;;;;;;5.68;5.18;;;29.10;39.20;;;;;;6262423;28;20249;-80
2023/06/08 10:36:39;;;;;;;9.98;5.65;;;29.20;39.60;;;;;;6272048;28;20280;-80
2023/06/08 10:39:48;;;;;;;6.40;5.90;;;29.30;38.80;;;;;;6261721;28;20249;-78
2023/06/08 10:42:52;;;;;;;5.72;5.10;;;29.10;39.00;;;;;;6266067;28;20346;-78
2023/06/08 10:46:04;;;;;;;5.80;5.30;;;29.00;39.30;;;;;;6265239;28;20233;-78
2023/06/08 10:49:08;;;;;;;6.70;5.97;;;29.10;39.50;;;;;;6275468;28;20317;-78
2023/06/08 10:52:18;;;;;;;5.45;5.00;;;29.50;38.80;;;;;;6272137;28;20238;-79
2023/06/08 10:55:25;;;;;;;5.55;5.05;;;29.70;37.90;;;;;;6269198;28;20375;-80
2023/06/08 10:58:28;;;;;;;5.03;4.72;;;29.90;38.00;;;;;;6268488;28;20311;-78
2023/06/08 11:01:32;;;;;;;6.00;5.50;;;30.00;38.20;;;;;;6290169;28;20266;-78
2023/06/08 11:04:35;;;;;;;5.18;4.78;;;30.00;37.90;;;;;;6283351;28;20267;-78
2023/06/08 11:07:42;;;;;;;6.30;5.80;;;30.00;38.10;;;;;;6264967;28;20644;-80
2023/06/08 11:10:53;;;;;;;10.20;5.97;;;30.00;38.30;;;;;;6273590;28;20273;-78
2023/06/08 11:13:56;;;;;;;7.13;5.75;;;30.10;37.90;;;;;;6270900;28;20237;-79
2023/06/08 11:17:00;;;;;;;10.63;5.90;;;30.00;37.90;;;;;;6268004;28;20322;-79
2023/06/08 11:20:05;;;;;;;6.05;5.50;;;30.00;38.00;;;;;;6271602;28;20372;-79
2023/06/08 11:23:10;;;;;;;7.80;5.53;;;29.70;38.20;;;;;;6271918;28;20265;-79
2023/06/08 11:26:15;;;;;;;5.85;5.53;;;29.70;38.70;;;;;;6272877;28;20241;-78
2023/06/08 11:29:21;;;;;;;8.77;5.88;;;29.80;38.30;;;;;;6274272;28;20237;-79
2023/06/08 11:32:26;;;;;;;5.45;5.15;;;29.90;38.60;;;;;;6282871;28;20370;-78
2023/06/08 11:35:29;;;;;;;8.63;5.65;;;30.00;37.70;;;;;;6262388;28;20710;-79
2023/06/08 11:38:34;;;;;;;4.93;4.53;;;30.00;37.50;;;;;;6269488;28;20544;-82
2023/06/08 11:41:41;;;;;;;6.47;5.20;;;30.00;37.50;;;;;;6272367;28;20729;-79
2023/06/08 11:44:44;;;;;;;6.22;5.63;;;30.10;37.70;;;;;;6269014;28;20799;-79
2023/06/08 11:47:47;;;;;;;6.57;5.45;;;30.10;37.70;;;;;;6274432;28;20236;-79
2023/06/08 11:51:08;;;;;;;6.22;5.85;;;30.20;37.50;;;;;;6268860;28;20786;-80
2023/06/08 11:54:11;;;;;;;5.70;5.18;;;30.20;37.00;;;;;;6275229;28;20754;-79
2023/06/08 11:57:16;;;;;;;5.32;5.03;;;30.20;37.20;;;;;;6271182;28;20241;-78
2023/06/08 12:00:21;;;;;;;5.80;5.50;;;30.30;37.30;;;;;;6259795;28;20709;-79
2023/06/08 12:03:26;;;;;;;6.47;5.82;;;30.50;36.70;;;;;;6278628;28;20777;-80
2023/06/08 12:06:30;;;;;;;6.38;5.78;;;30.30;37.40;;;;;;6269297;28;20293;-79
2023/06/08 12:09:33;;;;;;;7.30;6.10;;;30.30;37.60;;;;;;6263196;28;20292;-78
2023/06/08 12:12:37;;;;;;;6.50;5.80;;;30.10;37.40;;;;;;6267803;28;20241;-78
2023/06/08 12:15:43;;;;;;;6.68;5.18;;;30.10;37.70;;;;;;6270856;28;20388;-78
2023/06/08 12:18:46;;;;;;;5.45;4.93;;;30.10;37.40;;;;;;6277796;28;20339;-78
2023/06/08 12:21:53;;;;;;;5.80;5.43;;;30.30;37.70;;;;;;6265448;28;20349;-78
2023/06/08 12:24:56;;;;;;;5.70;5.30;;;30.10;37.20;;;;;;6272890;28;20295;-79
2023/06/08 12:28:00;;;;;;;8.55;5.50;;;30.00;37.70;;;;;;6274283;28;20244;-79
2023/06/08 12:31:04;;;;;;;6.68;6.07;;;30.00;37.50;;;;;;6272597;28;20325;-80
2023/06/08 12:34:07;;;;;;;6.07;5.60;;;30.00;38.30;;;;;;6267949;28;20880;-80
2023/06/08 12:37:11;;;;;;;7.22;5.25;;;30.10;38.00;;;;;;6272736;28;20260;-78
2023/06/08 12:40:15;;;;;;;6.15;5.75;;;30.00;37.70;;;;;;6260184;28;20246;-79
2023/06/08 12:43:21;;;;;;;5.50;4.95;;;30.00;38.20;;;;;;6266334;28;20867;-80
2023/06/08 12:46:24;;;;;;;5.55;5.25;;;30.20;38.00;;;;;;6268417;28;20242;-82
2023/06/08 12:49:30;;;;;;;6.10;5.50;;;30.40;38.10;;;;;;6266016;28;20241;-80
2023/06/08 12:52:33;;;;;;;5.38;5.03;;;30.70;37.90;;;;;;6270993;28;20342;-80
2023/06/08 12:55:36;;;;;;;5.85;5.20;;;31.00;37.60;;;;;;6276531;28;20260;-79
2023/06/08 12:58:41;;;;;;;5.18;4.88;;;31.20;36.80;;;;;;6272125;28;20229;-80
2023/06/08 13:01:45;;;;;;;5.47;4.82;;;31.30;36.70;;;;;;6275922;28;20276;-80
2023/06/08 13:04:48;;;;;;;5.93;5.40;;;31.20;36.40;;;;;;6264369;28;20734;-79
2023/06/08 13:07:51;;;;;;;11.38;5.50;;;30.90;36.60;;;;;;6261546;28;20288;-78
2023/06/08 13:10:54;;;;;;;6.22;5.70;;;30.70;36.50;;;;;;6265646;28;20229;-80
2023/06/08 13:14:00;;;;;;;5.88;5.38;;;30.70;37.00;;;;;;6266495;28;20237;-80
2023/06/08 13:17:03;;;;;;;6.47;5.88;;;30.90;36.80;;;;;;6266772;28;20797;-79
2023/06/08 13:20:08;;;;;;;5.50;5.05;;;30.90;36.40;;;;;;6277845;28;20237;-80
2023/06/08 13:23:12;;;;;;;5.90;5.70;;;31.10;36.60;;;;;;6276179;28;20261;-80
2023/06/08 13:26:15;;;;;;;5.55;5.00;;;30.90;35.70;;;;;;6267953;28;20740;-78
2023/06/08 13:29:20;;;;;;;5.00;4.70;;;30.90;35.50;;;;;;6264036;28;20793;-78
2023/06/08 13:32:23;;;;;;;5.50;5.20;;;30.80;35.90;;;;;;6269482;28;20328;-79
2023/06/08 13:35:26;;;;;;;5.22;5.03;;;31.00;36.00;;;;;;6268768;28;20240;-79
2023/06/08 13:38:30;;;;;;;8.00;4.97;;;31.10;36.80;;;;;;6266056;28;20245;-79
2023/06/08 13:41:35;;;;;;;9.20;5.90;;;31.30;37.30;;;;;;6269569;28;20325;-79
2023/06/08 13:44:45;;;;;;;5.63;5.13;;;31.60;36.90;;;;;;6279347;28;20795;-81
2023/06/08 13:47:49;;;;;;;4.53;4.43;;;31.50;36.60;;;;;;6270678;28;20226;-79
2023/06/08 13:50:52;;;;;;;6.18;5.35;;;31.70;36.90;;;;;;6274661;28;20348;-82
2023/06/08 13:53:55;;;;;;;4.97;4.68;;;31.70;36.10;;;;;;6272582;28;20234;-80
2023/06/08 13:56:58;;;;;;;5.80;5.35;;;31.40;36.20;;;;;;6274725;28;20315;-79
2023/06/08 14:00:05;;;;;;;6.25;5.10;;;31.00;36.40;;;;;;6263946;28;20257;-79
2023/06/08 14:03:10;;;;;;;6.07;5.57;;;30.80;36.70;;;;;;6279131;28;20252;-80
2023/06/08 14:06:13;;;;;;;5.55;5.07;;;30.60;37.30;;;;;;6267713;28;20230;-82
2023/06/08 14:09:16;;;;;;;5.70;5.20;;;30.50;37.30;;;;;;6274264;28;20358;-81
2023/06/08 14:12:20;;;;;;;5.90;5.60;;;30.40;37.40;;;;;;6266020;28;20248;-80
2023/06/08 14:15:25;;;;;;;5.88;5.35;;;30.30;37.50;;;;;;6268635;28;20257;-79
2023/06/08 14:18:28;;;;;;;6.18;5.57;;;30.20;37.70;;;;;;6264458;28;20261;-79
2023/06/08 14:21:31;;;;;;;6.05;5.45;;;30.30;37.50;;;;;;6275817;28;20296;-81
2023/06/08 14:24:34;;;;;;;5.57;5.15;;;30.50;37.20;;;;;;6272975;28;20237;-84
2023/06/08 14:27:37;;;;;;;5.22;4.93;;;30.50;36.70;;;;;;6262159;28;20801;-83
2023/06/08 14:30:42;;;;;;;6.28;5.78;;;30.30;36.80;;;;;;6267917;28;20621;-79
2023/06/08 14:33:45;;;;;;;6.75;6.35;;;30.30;36.60;;;;;;6272551;28;20307;-81
2023/06/08 14:36:48;;;;;;;5.95;5.55;;;30.00;37.00;;;;;;6260368;28;20231;-79
2023/06/08 14:39:51;;;;;;;6.10;5.72;;;29.90;37.10;;;;;;6264489;28;20234;-81
2023/06/08 14:42:54;;;;;;;5.20;4.90;;;29.90;37.20;;;;;;6262077;28;20281;-81
2023/06/08 14:45:59;;;;;;;5.18;4.88;;;30.10;37.10;;;;;;6268071;28;20265;-78
2023/06/08 14:49:02;;;;;;;5.57;5.18;;;30.30;37.00;;;;;;6267306;28;20279;-81
2023/06/08 14:52:06;;;;;;;5.50;5.03;;;30.60;36.80;;;;;;6263524;28;20234;-75
2023/06/08 14:55:09;;;;;;;5.85;5.35;;;30.60;37.30;;;;;;6259011;28;20357;-76
2023/06/08 14:58:12;;;;;;;5.18;4.60;;;30.70;37.10;;;;;;6261407;28;20245;-76
2023/06/08 15:01:17;;;;;;;6.20;5.07;;;30.80;37.30;;;;;;6263946;28;20241;-77
2023/06/08 15:04:20;;;;;;;5.28;4.90;;;30.90;36.90;;;;;;6272851;28;20365;-77
2023/06/08 15:07:24;;;;;;;5.45;5.05;;;30.90;36.70;;;;;;6266814;28;20230;-76
2023/06/08 15:10:27;;;;;;;6.00;5.47;;;30.70;36.60;;;;;;6269468;28;20322;-74
2023/06/08 15:13:30;;;;;;;4.90;4.80;;;30.50;36.80;;;;;;6268175;28;20230;-75
2023/06/08 15:16:35;;;;;;;5.65;5.40;;;30.30;37.10;;;;;;6269166;28;20283;-74
2023/06/08 15:19:38;;;;;;;4.95;4.72;;;30.30;36.80;;;;;;6272100;28;20234;-77
2023/06/08 15:22:41;;;;;;;5.15;4.88;;;30.40;36.70;;;;;;6271873;28;20268;-77
2023/06/08 15:25:44;;;;;;;5.38;4.90;;;30.50;36.30;;;;;;6276697;28;20238;-76
2023/06/08 15:28:47;;;;;;;5.10;4.80;;;30.40;36.50;;;;;;6273268;28;20260;-77
2023/06/08 15:31:52;;;;;;;5.40;5.10;;;30.50;36.70;;;;;;6261624;28;20662;-76
2023/06/08 15:34:55;;;;;;;5.50;5.03;;;30.50;36.70;;;;;;6279387;28;20238;-77
2023/06/08 15:37:58;;;;;;;8.05;6.50;;;30.50;37.60;;;;;;6271830;28;20291;-74
2023/06/08 15:41:01;;;;;;;6.13;5.60;;;30.50;37.90;;;;;;6269339;28;20322;-77
2023/06/08 15:44:06;;;;;;;6.10;5.60;;;30.40;38.10;;;;;;6267932;28;20244;-76
2023/06/08 15:47:11;;;;;;;5.53;4.72;;;30.30;38.50;;;;;;6263870;28;20621;-76
2023/06/08 15:50:14;;;;;;;5.75;5.10;;;30.30;38.90;;;;;;6261710;28;20296;-76
2023/06/08 15:53:17;;;;;;;5.20;4.88;;;30.30;38.50;;;;;;6281573;28;20245;-75
2023/06/08 15:56:20;;;;;;;6.53;5.90;;;30.40;38.10;;;;;;6294100;28;20233;-75
2023/06/08 15:59:24;;;;;;;6.50;6.00;;;30.50;38.20;;;;;;6301121;28;20242;-75